sensor_id;sensor_type;location;lat;lon;timestamp;temperature;humidity
9760;DHT22;4919;48.792;9.202;2023-04-06T00:00:39;2.50;1.00
9760;DHT22;4919;48.792;9.202;2023-04-06T00:03:24;2.50;1.00
9760;DHT22;4919;48.792;9.202;2023-04-06T00:06:09;2.50;1.00
9760;DHT22;4919;48.792;9.202;2023-04-06T00:08:54;2.40;1.00
9760;DHT22;4919;48.792;9.202;2023-04-06T00:11:39;2.30;1.00
9760;DHT22;4919;48.792;9.202;2023-04-06T00:14:23;2.30;1.00
9760;DHT22;4919;48.792;9.202;2023-04-06T00:17:08;2.20;1.00
9760;DHT22;4919;48.792;9.202;2023-04-06T00:19:53;2.10;1.00
9760;DHT22;4919;48.792;9.202;2023-04-06T00:22:38;2.00;1.00
9760;DHT22;4919;48.792;9.202;2023-04-06T00:25:23;2.00;1.00
9760;DHT22;4919;48.792;9.202;2023-04-06T00:28:08;1.90;1.00
9760;DHT22;4919;48.792;9.202;2023-04-06T00:30:53;1.70;1.00
9760;DHT22;4919;48.792;9.202;2023-04-06T00:33:38;1.70;1.00
9760;DHT22;4919;48.792;9.202;2023-04-06T00:36:23;1.70;1.00
9760;DHT22;4919;48.792;9.202;2023-04-06T00:39:08;1.70;1.00
9760;DHT22;4919;48.792;9.202;2023-04-06T00:41:53;1.60;1.00
9760;DHT22;4919;48.792;9.202;2023-04-06T00:44:38;1.50;1.00
9760;DHT22;4919;48.792;9.202;2023-04-06T00:47:23;1.50;1.00
9760;DHT22;4919;48.792;9.202;2023-04-06T00:50:09;1.40;1.00
9760;DHT22;4919;48.792;9.202;2023-04-06T00:52:54;1.40;1.00
9760;DHT22;4919;48.792;9.202;2023-04-06T00:55:39;1.30;1.00
9760;DHT22;4919;48.792;9.202;2023-04-06T00:58:24;1.30;1.00
9760;DHT22;4919;48.792;9.202;2023-04-06T01:01:09;1.30;1.00
9760;DHT22;4919;48.792;9.202;2023-04-06T01:03:53;1.30;1.00
9760;DHT22;4919;48.792;9.202;2023-04-06T01:06:38;1.30;1.00
9760;DHT22;4919;48.792;9.202;2023-04-06T01:09:23;1.30;1.00
9760;DHT22;4919;48.792;9.202;2023-04-06T01:12:08;1.20;1.00
9760;DHT22;4919;48.792;9.202;2023-04-06T01:14:53;1.30;1.00
9760;DHT22;4919;48.792;9.202;2023-04-06T01:17:38;1.20;1.00
9760;DHT22;4919;48.792;9.202;2023-04-06T01:20:23;1.20;1.00
9760;DHT22;4919;48.792;9.202;2023-04-06T01:23:08;1.20;1.00
9760;DHT22;4919;48.792;9.202;2023-04-06T01:25:53;1.10;2.40
9760;DHT22;4919;48.792;9.202;2023-04-06T01:28:38;1.10;1.50
9760;DHT22;4919;48.792;9.202;2023-04-06T01:31:23;1.10;6.90
9760;DHT22;4919;48.792;9.202;2023-04-06T01:34:08;1.10;9.10
9760;DHT22;4919;48.792;9.202;2023-04-06T01:36:54;1.10;8.70
9760;DHT22;4919;48.792;9.202;2023-04-06T01:39:39;1.10;13.60
9760;DHT22;4919;48.792;9.202;2023-04-06T01:42:24;1.10;14.90
9760;DHT22;4919;48.792;9.202;2023-04-06T01:45:09;1.10;15.30
9760;DHT22;4919;48.792;9.202;2023-04-06T01:47:53;1.10;33.90
9760;DHT22;4919;48.792;9.202;2023-04-06T01:50:38;1.00;15.20
9760;DHT22;4919;48.792;9.202;2023-04-06T01:53:23;0.90;20.40
9760;DHT22;4919;48.792;9.202;2023-04-06T01:56:08;0.90;22.00
9760;DHT22;4919;48.792;9.202;2023-04-06T01:58:53;0.80;38.20
9760;DHT22;4919;48.792;9.202;2023-04-06T02:01:38;0.80;19.50
9760;DHT22;4919;48.792;9.202;2023-04-06T02:04:23;0.70;23.30
9760;DHT22;4919;48.792;9.202;2023-04-06T02:07:08;0.70;36.80
9760;DHT22;4919;48.792;9.202;2023-04-06T02:09:54;0.60;39.80
9760;DHT22;4919;48.792;9.202;2023-04-06T02:12:39;0.60;47.70
9760;DHT22;4919;48.792;9.202;2023-04-06T02:15:25;0.50;48.30
9760;DHT22;4919;48.792;9.202;2023-04-06T02:18:10;0.50;51.30
9760;DHT22;4919;48.792;9.202;2023-04-06T02:20:55;0.40;50.90
9760;DHT22;4919;48.792;9.202;2023-04-06T02:23:40;0.40;60.60
9760;DHT22;4919;48.792;9.202;2023-04-06T02:26:25;0.30;69.60
9760;DHT22;4919;48.792;9.202;2023-04-06T02:29:10;0.30;68.30
9760;DHT22;4919;48.792;9.202;2023-04-06T02:31:55;0.40;77.00
9760;DHT22;4919;48.792;9.202;2023-04-06T02:34:40;0.30;72.60
9760;DHT22;4919;48.792;9.202;2023-04-06T02:37:24;0.20;77.10
9760;DHT22;4919;48.792;9.202;2023-04-06T02:40:10;0.20;72.10
9760;DHT22;4919;48.792;9.202;2023-04-06T02:42:54;0.10;95.00
9760;DHT22;4919;48.792;9.202;2023-04-06T02:45:39;0.10;98.10
9760;DHT22;4919;48.792;9.202;2023-04-06T02:48:24;0.00;96.20
9760;DHT22;4919;48.792;9.202;2023-04-06T02:51:09;0.00;99.90
9760;DHT22;4919;48.792;9.202;2023-04-06T02:53:54;0.00;99.90
9760;DHT22;4919;48.792;9.202;2023-04-06T02:56:39;0.00;99.90
9760;DHT22;4919;48.792;9.202;2023-04-06T02:59:23;-0.20;99.90
9760;DHT22;4919;48.792;9.202;2023-04-06T03:02:08;-0.20;99.90
9760;DHT22;4919;48.792;9.202;2023-04-06T03:04:53;-0.30;99.90
9760;DHT22;4919;48.792;9.202;2023-04-06T03:07:38;-0.30;99.90
9760;DHT22;4919;48.792;9.202;2023-04-06T03:10:23;-0.30;99.90
9760;DHT22;4919;48.792;9.202;2023-04-06T03:13:08;-0.30;99.90
9760;DHT22;4919;48.792;9.202;2023-04-06T03:15:53;-0.30;99.90
9760;DHT22;4919;48.792;9.202;2023-04-06T03:18:37;-0.30;99.90
9760;DHT22;4919;48.792;9.202;2023-04-06T03:21:22;-0.30;99.90
9760;DHT22;4919;48.792;9.202;2023-04-06T03:24:07;-0.30;99.90
9760;DHT22;4919;48.792;9.202;2023-04-06T03:26:52;-0.40;99.90
9760;DHT22;4919;48.792;9.202;2023-04-06T03:29:37;-0.40;99.90
9760;DHT22;4919;48.792;9.202;2023-04-06T03:32:22;-0.50;99.90
9760;DHT22;4919;48.792;9.202;2023-04-06T03:35:07;-0.50;99.90
9760;DHT22;4919;48.792;9.202;2023-04-06T03:37:52;-0.50;99.90
9760;DHT22;4919;48.792;9.202;2023-04-06T03:40:37;-0.50;99.90
9760;DHT22;4919;48.792;9.202;2023-04-06T03:43:22;-0.50;99.90
9760;DHT22;4919;48.792;9.202;2023-04-06T03:46:06;-0.60;99.90
9760;DHT22;4919;48.792;9.202;2023-04-06T03:48:51;-0.60;99.90
9760;DHT22;4919;48.792;9.202;2023-04-06T03:51:36;-0.60;99.90
9760;DHT22;4919;48.792;9.202;2023-04-06T03:54:21;-0.60;99.90
9760;DHT22;4919;48.792;9.202;2023-04-06T03:57:06;-0.70;99.90
9760;DHT22;4919;48.792;9.202;2023-04-06T03:59:51;-0.60;99.90
9760;DHT22;4919;48.792;9.202;2023-04-06T04:02:36;-0.60;99.90
9760;DHT22;4919;48.792;9.202;2023-04-06T04:05:21;-0.60;99.90
9760;DHT22;4919;48.792;9.202;2023-04-06T04:08:06;-0.60;99.90
9760;DHT22;4919;48.792;9.202;2023-04-06T04:10:50;-0.60;99.90
9760;DHT22;4919;48.792;9.202;2023-04-06T04:13:35;-0.70;99.90
9760;DHT22;4919;48.792;9.202;2023-04-06T04:16:20;-0.70;99.90
9760;DHT22;4919;48.792;9.202;2023-04-06T04:19:05;-0.70;99.90
9760;DHT22;4919;48.792;9.202;2023-04-06T04:21:50;-0.70;99.90
9760;DHT22;4919;48.792;9.202;2023-04-06T04:24:35;-0.70;99.90
9760;DHT22;4919;48.792;9.202;2023-04-06T04:27:19;-0.70;99.90
9760;DHT22;4919;48.792;9.202;2023-04-06T04:30:05;-0.80;99.90
9760;DHT22;4919;48.792;9.202;2023-04-06T04:32:50;-0.80;99.90
9760;DHT22;4919;48.792;9.202;2023-04-06T04:35:35;-0.70;99.90
9760;DHT22;4919;48.792;9.202;2023-04-06T04:38:20;-0.60;99.90
9760;DHT22;4919;48.792;9.202;2023-04-06T04:41:05;-0.70;99.90
9760;DHT22;4919;48.792;9.202;2023-04-06T04:43:50;-0.70;99.90
9760;DHT22;4919;48.792;9.202;2023-04-06T04:46:35;-0.70;99.90
9760;DHT22;4919;48.792;9.202;2023-04-06T04:49:20;-0.80;99.90
9760;DHT22;4919;48.792;9.202;2023-04-06T04:52:05;-0.80;99.90
9760;DHT22;4919;48.792;9.202;2023-04-06T04:54:50;-0.80;99.90
9760;DHT22;4919;48.792;9.202;2023-04-06T04:57:34;-0.70;99.90
9760;DHT22;4919;48.792;9.202;2023-04-06T05:00:19;-0.80;99.90
9760;DHT22;4919;48.792;9.202;2023-04-06T05:03:05;-0.80;99.90
9760;DHT22;4919;48.792;9.202;2023-04-06T05:05:50;-0.70;99.90
9760;DHT22;4919;48.792;9.202;2023-04-06T05:08:35;-0.70;99.90
9760;DHT22;4919;48.792;9.202;2023-04-06T05:11:20;-0.60;99.90
9760;DHT22;4919;48.792;9.202;2023-04-06T05:14:05;-0.50;99.90
9760;DHT22;4919;48.792;9.202;2023-04-06T05:16:49;-0.40;99.90
9760;DHT22;4919;48.792;9.202;2023-04-06T05:19:34;-0.10;99.90
9760;DHT22;4919;48.792;9.202;2023-04-06T05:22:19;0.80;99.90
9760;DHT22;4919;48.792;9.202;2023-04-06T05:25:04;1.20;69.20
9760;DHT22;4919;48.792;9.202;2023-04-06T05:27:49;1.30;56.20
9760;DHT22;4919;48.792;9.202;2023-04-06T05:30:34;1.80;20.60
9760;DHT22;4919;48.792;9.202;2023-04-06T05:33:19;2.60;1.00
9760;DHT22;4919;48.792;9.202;2023-04-06T05:36:04;2.10;1.00
9760;DHT22;4919;48.792;9.202;2023-04-06T05:38:49;2.60;1.00
9760;DHT22;4919;48.792;9.202;2023-04-06T05:41:34;2.50;1.00
9760;DHT22;4919;48.792;9.202;2023-04-06T05:44:19;2.90;1.00
9760;DHT22;4919;48.792;9.202;2023-04-06T05:47:04;3.40;1.00
9760;DHT22;4919;48.792;9.202;2023-04-06T05:49:48;3.60;1.00
9760;DHT22;4919;48.792;9.202;2023-04-06T05:52:33;3.20;1.00
9760;DHT22;4919;48.792;9.202;2023-04-06T05:55:18;3.10;1.00
9760;DHT22;4919;48.792;9.202;2023-04-06T05:58:03;3.00;1.00
9760;DHT22;4919;48.792;9.202;2023-04-06T06:00:48;3.30;1.00
9760;DHT22;4919;48.792;9.202;2023-04-06T06:03:33;3.40;1.00
9760;DHT22;4919;48.792;9.202;2023-04-06T06:06:18;3.80;1.00
9760;DHT22;4919;48.792;9.202;2023-04-06T06:09:03;3.80;1.00
9760;DHT22;4919;48.792;9.202;2023-04-06T06:11:49;3.70;1.00
9760;DHT22;4919;48.792;9.202;2023-04-06T06:14:33;3.70;1.00
9760;DHT22;4919;48.792;9.202;2023-04-06T06:17:18;3.80;1.00
9760;DHT22;4919;48.792;9.202;2023-04-06T06:20:03;3.90;1.00
9760;DHT22;4919;48.792;9.202;2023-04-06T06:22:48;4.00;1.00
9760;DHT22;4919;48.792;9.202;2023-04-06T06:25:33;4.00;1.00
9760;DHT22;4919;48.792;9.202;2023-04-06T06:28:18;3.90;1.00
9760;DHT22;4919;48.792;9.202;2023-04-06T06:31:03;3.60;1.00
9760;DHT22;4919;48.792;9.202;2023-04-06T06:33:48;3.80;1.00
9760;DHT22;4919;48.792;9.202;2023-04-06T06:36:33;3.80;1.00
9760;DHT22;4919;48.792;9.202;2023-04-06T06:39:18;3.90;1.00
9760;DHT22;4919;48.792;9.202;2023-04-06T06:42:03;3.90;1.00
9760;DHT22;4919;48.792;9.202;2023-04-06T06:44:48;4.10;1.00
9760;DHT22;4919;48.792;9.202;2023-04-06T06:47:33;4.20;1.00
9760;DHT22;4919;48.792;9.202;2023-04-06T06:50:18;4.30;1.00
9760;DHT22;4919;48.792;9.202;2023-04-06T06:53:03;4.40;1.00
9760;DHT22;4919;48.792;9.202;2023-04-06T06:55:48;4.40;1.00
9760;DHT22;4919;48.792;9.202;2023-04-06T06:58:33;4.50;1.00
9760;DHT22;4919;48.792;9.202;2023-04-06T07:01:18;4.50;1.00
9760;DHT22;4919;48.792;9.202;2023-04-06T07:04:03;4.70;1.00
9760;DHT22;4919;48.792;9.202;2023-04-06T07:06:48;4.90;1.00
9760;DHT22;4919;48.792;9.202;2023-04-06T07:09:32;4.90;1.00
9760;DHT22;4919;48.792;9.202;2023-04-06T07:12:17;5.00;1.00
9760;DHT22;4919;48.792;9.202;2023-04-06T07:15:03;5.00;1.00
9760;DHT22;4919;48.792;9.202;2023-04-06T07:17:47;5.10;1.00
9760;DHT22;4919;48.792;9.202;2023-04-06T07:20:32;5.30;1.00
9760;DHT22;4919;48.792;9.202;2023-04-06T07:23:17;5.50;1.00
9760;DHT22;4919;48.792;9.202;2023-04-06T07:26:02;5.70;1.00
9760;DHT22;4919;48.792;9.202;2023-04-06T07:28:47;5.70;1.00
9760;DHT22;4919;48.792;9.202;2023-04-06T07:31:32;5.60;1.00
9760;DHT22;4919;48.792;9.202;2023-04-06T07:34:17;5.70;1.00
9760;DHT22;4919;48.792;9.202;2023-04-06T07:37:01;5.70;1.00
9760;DHT22;4919;48.792;9.202;2023-04-06T07:39:46;5.80;1.00
9760;DHT22;4919;48.792;9.202;2023-04-06T07:42:31;6.00;1.00
9760;DHT22;4919;48.792;9.202;2023-04-06T07:45:16;6.20;1.00
9760;DHT22;4919;48.792;9.202;2023-04-06T07:48:01;6.20;1.00
9760;DHT22;4919;48.792;9.202;2023-04-06T07:50:46;6.20;1.00
9760;DHT22;4919;48.792;9.202;2023-04-06T07:53:31;6.40;1.00
9760;DHT22;4919;48.792;9.202;2023-04-06T07:56:16;6.50;1.00
9760;DHT22;4919;48.792;9.202;2023-04-06T07:59:01;6.60;1.00
9760;DHT22;4919;48.792;9.202;2023-04-06T08:01:46;6.70;1.00
9760;DHT22;4919;48.792;9.202;2023-04-06T08:04:30;6.80;1.00
9760;DHT22;4919;48.792;9.202;2023-04-06T08:07:15;6.80;1.00
9760;DHT22;4919;48.792;9.202;2023-04-06T08:10:00;6.90;1.00
9760;DHT22;4919;48.792;9.202;2023-04-06T08:12:45;7.00;1.00
9760;DHT22;4919;48.792;9.202;2023-04-06T08:15:30;7.00;1.00
9760;DHT22;4919;48.792;9.202;2023-04-06T08:18:15;7.20;1.00
9760;DHT22;4919;48.792;9.202;2023-04-06T08:21:00;7.40;1.00
9760;DHT22;4919;48.792;9.202;2023-04-06T08:23:45;7.30;1.00
9760;DHT22;4919;48.792;9.202;2023-04-06T08:26:30;7.50;1.00
9760;DHT22;4919;48.792;9.202;2023-04-06T08:29:15;7.60;1.00
9760;DHT22;4919;48.792;9.202;2023-04-06T08:32:00;7.60;1.00
9760;DHT22;4919;48.792;9.202;2023-04-06T08:34:45;7.50;1.00
9760;DHT22;4919;48.792;9.202;2023-04-06T08:37:31;7.60;1.00
9760;DHT22;4919;48.792;9.202;2023-04-06T08:40:16;7.80;1.00
9760;DHT22;4919;48.792;9.202;2023-04-06T08:43:02;7.90;1.00
9760;DHT22;4919;48.792;9.202;2023-04-06T08:45:47;8.20;1.00
9760;DHT22;4919;48.792;9.202;2023-04-06T08:48:33;8.30;1.00
9760;DHT22;4919;48.792;9.202;2023-04-06T08:51:19;8.30;1.00
9760;DHT22;4919;48.792;9.202;2023-04-06T08:54:03;8.60;1.00
9760;DHT22;4919;48.792;9.202;2023-04-06T08:56:48;8.60;1.00
9760;DHT22;4919;48.792;9.202;2023-04-06T08:59:34;8.80;1.00
9760;DHT22;4919;48.792;9.202;2023-04-06T09:02:19;8.90;1.00
9760;DHT22;4919;48.792;9.202;2023-04-06T09:05:04;9.30;1.00
9760;DHT22;4919;48.792;9.202;2023-04-06T09:07:49;9.20;1.00
9760;DHT22;4919;48.792;9.202;2023-04-06T09:10:34;9.60;1.00
9760;DHT22;4919;48.792;9.202;2023-04-06T09:13:19;9.70;1.00
9760;DHT22;4919;48.792;9.202;2023-04-06T09:16:05;9.50;1.00
9760;DHT22;4919;48.792;9.202;2023-04-06T09:18:50;9.60;1.00
9760;DHT22;4919;48.792;9.202;2023-04-06T09:21:36;9.90;1.00
9760;DHT22;4919;48.792;9.202;2023-04-06T09:24:20;10.20;1.00
9760;DHT22;4919;48.792;9.202;2023-04-06T09:27:05;10.30;1.00
9760;DHT22;4919;48.792;9.202;2023-04-06T09:29:50;10.50;1.00
9760;DHT22;4919;48.792;9.202;2023-04-06T09:32:56;10.30;1.00
9760;DHT22;4919;48.792;9.202;2023-04-06T09:35:49;10.70;1.00
9760;DHT22;4919;48.792;9.202;2023-04-06T09:38:35;10.60;1.00
9760;DHT22;4919;48.792;9.202;2023-04-06T09:41:22;10.10;1.00
9760;DHT22;4919;48.792;9.202;2023-04-06T09:44:11;10.30;1.00
9760;DHT22;4919;48.792;9.202;2023-04-06T09:46:56;10.40;1.00
9760;DHT22;4919;48.792;9.202;2023-04-06T09:49:41;10.80;1.00
9760;DHT22;4919;48.792;9.202;2023-04-06T09:52:51;10.50;1.00
9760;DHT22;4919;48.792;9.202;2023-04-06T09:55:43;11.00;1.00
9760;DHT22;4919;48.792;9.202;2023-04-06T09:58:33;11.20;1.00
9760;DHT22;4919;48.792;9.202;2023-04-06T10:01:20;10.80;1.00
9760;DHT22;4919;48.792;9.202;2023-04-06T10:04:36;10.90;1.00
9760;DHT22;4919;48.792;9.202;2023-04-06T10:07:22;11.60;1.00
9760;DHT22;4919;48.792;9.202;2023-04-06T10:10:08;11.70;1.00
9760;DHT22;4919;48.792;9.202;2023-04-06T10:12:54;11.10;1.00
9760;DHT22;4919;48.792;9.202;2023-04-06T10:15:39;11.60;1.00
9760;DHT22;4919;48.792;9.202;2023-04-06T10:18:24;11.10;1.00
9760;DHT22;4919;48.792;9.202;2023-04-06T10:21:12;11.50;1.00
9760;DHT22;4919;48.792;9.202;2023-04-06T10:24:00;12.00;1.00
9760;DHT22;4919;48.792;9.202;2023-04-06T10:27:00;12.00;1.00
9760;DHT22;4919;48.792;9.202;2023-04-06T10:29:47;11.80;1.00
9760;DHT22;4919;48.792;9.202;2023-04-06T10:32:36;12.00;1.00
9760;DHT22;4919;48.792;9.202;2023-04-06T10:35:21;11.50;1.00
9760;DHT22;4919;48.792;9.202;2023-04-06T10:38:06;12.00;1.00
9760;DHT22;4919;48.792;9.202;2023-04-06T10:40:51;11.80;1.00
9760;DHT22;4919;48.792;9.202;2023-04-06T10:43:38;12.40;1.00
9760;DHT22;4919;48.792;9.202;2023-04-06T10:46:29;12.40;1.00
9760;DHT22;4919;48.792;9.202;2023-04-06T10:49:14;12.00;1.00
9760;DHT22;4919;48.792;9.202;2023-04-06T10:51:59;10.70;1.00
9760;DHT22;4919;48.792;9.202;2023-04-06T10:54:44;10.30;1.00
9760;DHT22;4919;48.792;9.202;2023-04-06T10:57:30;10.10;1.00
9760;DHT22;4919;48.792;9.202;2023-04-06T11:00:15;10.10;1.00
9760;DHT22;4919;48.792;9.202;2023-04-06T11:03:00;10.30;1.00
9760;DHT22;4919;48.792;9.202;2023-04-06T11:05:49;11.70;1.00
9760;DHT22;4919;48.792;9.202;2023-04-06T11:08:34;11.40;1.00
9760;DHT22;4919;48.792;9.202;2023-04-06T11:11:20;10.90;1.00
9760;DHT22;4919;48.792;9.202;2023-04-06T11:14:05;11.50;1.00
9760;DHT22;4919;48.792;9.202;2023-04-06T11:16:50;12.40;1.00
9760;DHT22;4919;48.792;9.202;2023-04-06T11:19:35;13.40;1.00
9760;DHT22;4919;48.792;9.202;2023-04-06T11:22:20;12.10;1.00
9760;DHT22;4919;48.792;9.202;2023-04-06T11:25:06;12.00;1.00
9760;DHT22;4919;48.792;9.202;2023-04-06T11:27:51;12.30;1.00
9760;DHT22;4919;48.792;9.202;2023-04-06T11:30:36;12.50;1.00
9760;DHT22;4919;48.792;9.202;2023-04-06T11:33:21;12.00;1.00
9760;DHT22;4919;48.792;9.202;2023-04-06T11:36:06;12.20;1.00
9760;DHT22;4919;48.792;9.202;2023-04-06T11:38:51;12.50;1.00
9760;DHT22;4919;48.792;9.202;2023-04-06T11:41:36;12.70;1.00
9760;DHT22;4919;48.792;9.202;2023-04-06T11:47:19;11.90;1.00
9760;DHT22;4919;48.792;9.202;2023-04-06T11:50:12;12.00;1.00
9760;DHT22;4919;48.792;9.202;2023-04-06T11:52:58;12.00;1.00
9760;DHT22;4919;48.792;9.202;2023-04-06T11:55:43;12.40;1.00
9760;DHT22;4919;48.792;9.202;2023-04-06T11:58:29;12.40;1.00
9760;DHT22;4919;48.792;9.202;2023-04-06T12:01:14;12.60;1.00
9760;DHT22;4919;48.792;9.202;2023-04-06T12:03:59;12.60;1.00
9760;DHT22;4919;48.792;9.202;2023-04-06T12:06:44;12.10;1.00
9760;DHT22;4919;48.792;9.202;2023-04-06T12:09:29;12.20;1.00
9760;DHT22;4919;48.792;9.202;2023-04-06T12:12:14;11.80;1.00
9760;DHT22;4919;48.792;9.202;2023-04-06T12:14:59;11.60;1.00
9760;DHT22;4919;48.792;9.202;2023-04-06T12:17:44;11.80;1.00
9760;DHT22;4919;48.792;9.202;2023-04-06T12:20:29;11.50;1.00
9760;DHT22;4919;48.792;9.202;2023-04-06T12:23:14;11.70;1.00
9760;DHT22;4919;48.792;9.202;2023-04-06T12:25:59;11.70;1.00
9760;DHT22;4919;48.792;9.202;2023-04-06T12:28:43;11.50;1.00
9760;DHT22;4919;48.792;9.202;2023-04-06T12:31:28;11.70;1.00
9760;DHT22;4919;48.792;9.202;2023-04-06T12:34:13;11.90;1.00
9760;DHT22;4919;48.792;9.202;2023-04-06T12:36:58;12.00;1.00
9760;DHT22;4919;48.792;9.202;2023-04-06T12:39:43;11.90;1.00
9760;DHT22;4919;48.792;9.202;2023-04-06T12:42:28;12.10;1.00
9760;DHT22;4919;48.792;9.202;2023-04-06T12:45:13;12.00;1.00
9760;DHT22;4919;48.792;9.202;2023-04-06T12:47:58;12.40;1.00
9760;DHT22;4919;48.792;9.202;2023-04-06T12:50:43;12.50;1.00
9760;DHT22;4919;48.792;9.202;2023-04-06T12:53:28;12.10;1.00
9760;DHT22;4919;48.792;9.202;2023-04-06T12:56:17;12.20;1.00
9760;DHT22;4919;48.792;9.202;2023-04-06T12:59:02;12.50;1.00
9760;DHT22;4919;48.792;9.202;2023-04-06T13:01:47;12.20;1.00
9760;DHT22;4919;48.792;9.202;2023-04-06T13:04:32;12.10;1.00
9760;DHT22;4919;48.792;9.202;2023-04-06T13:07:18;12.00;1.00
9760;DHT22;4919;48.792;9.202;2023-04-06T13:10:03;12.00;1.00
9760;DHT22;4919;48.792;9.202;2023-04-06T13:12:48;11.80;1.00
9760;DHT22;4919;48.792;9.202;2023-04-06T13:15:33;11.80;1.00
9760;DHT22;4919;48.792;9.202;2023-04-06T13:18:17;11.90;1.00
9760;DHT22;4919;48.792;9.202;2023-04-06T13:21:02;12.00;1.00
9760;DHT22;4919;48.792;9.202;2023-04-06T13:23:47;12.10;1.00
9760;DHT22;4919;48.792;9.202;2023-04-06T13:26:32;11.90;1.00
9760;DHT22;4919;48.792;9.202;2023-04-06T13:29:17;12.10;1.00
9760;DHT22;4919;48.792;9.202;2023-04-06T13:32:02;12.10;1.00
9760;DHT22;4919;48.792;9.202;2023-04-06T13:34:47;11.50;1.00
9760;DHT22;4919;48.792;9.202;2023-04-06T13:37:32;11.10;1.00
9760;DHT22;4919;48.792;9.202;2023-04-06T13:40:17;10.90;1.00
9760;DHT22;4919;48.792;9.202;2023-04-06T13:43:02;10.70;1.00
9760;DHT22;4919;48.792;9.202;2023-04-06T13:45:51;11.20;1.00
9760;DHT22;4919;48.792;9.202;2023-04-06T13:48:36;11.80;1.00
9760;DHT22;4919;48.792;9.202;2023-04-06T13:51:20;12.00;1.00
9760;DHT22;4919;48.792;9.202;2023-04-06T13:54:05;11.70;1.00
9760;DHT22;4919;48.792;9.202;2023-04-06T13:56:51;11.70;1.00
9760;DHT22;4919;48.792;9.202;2023-04-06T13:59:36;11.90;1.00
9760;DHT22;4919;48.792;9.202;2023-04-06T14:02:21;11.40;1.00
9760;DHT22;4919;48.792;9.202;2023-04-06T14:05:06;11.20;1.00
9760;DHT22;4919;48.792;9.202;2023-04-06T14:07:51;11.40;1.00
9760;DHT22;4919;48.792;9.202;2023-04-06T14:10:40;11.50;1.00
9760;DHT22;4919;48.792;9.202;2023-04-06T14:13:24;11.50;1.00
9760;DHT22;4919;48.792;9.202;2023-04-06T14:16:09;11.50;1.00
9760;DHT22;4919;48.792;9.202;2023-04-06T14:18:54;11.20;1.00
9760;DHT22;4919;48.792;9.202;2023-04-06T14:21:39;11.30;1.00
9760;DHT22;4919;48.792;9.202;2023-04-06T14:24:24;11.50;1.00
9760;DHT22;4919;48.792;9.202;2023-04-06T14:27:08;11.30;1.00
9760;DHT22;4919;48.792;9.202;2023-04-06T14:29:54;11.40;1.00
9760;DHT22;4919;48.792;9.202;2023-04-06T14:32:38;11.30;1.00
9760;DHT22;4919;48.792;9.202;2023-04-06T14:35:23;11.40;1.00
9760;DHT22;4919;48.792;9.202;2023-04-06T14:38:08;11.10;1.00
9760;DHT22;4919;48.792;9.202;2023-04-06T14:40:53;11.20;1.00
9760;DHT22;4919;48.792;9.202;2023-04-06T14:43:38;11.20;1.00
9760;DHT22;4919;48.792;9.202;2023-04-06T14:46:23;11.20;1.00
9760;DHT22;4919;48.792;9.202;2023-04-06T14:49:08;11.10;1.00
9760;DHT22;4919;48.792;9.202;2023-04-06T14:51:53;11.10;1.00
9760;DHT22;4919;48.792;9.202;2023-04-06T14:54:38;11.10;1.00
9760;DHT22;4919;48.792;9.202;2023-04-06T14:57:23;10.90;1.00
9760;DHT22;4919;48.792;9.202;2023-04-06T15:00:08;11.10;1.00
9760;DHT22;4919;48.792;9.202;2023-04-06T15:02:53;11.10;1.00
9760;DHT22;4919;48.792;9.202;2023-04-06T15:05:38;11.00;1.00
9760;DHT22;4919;48.792;9.202;2023-04-06T15:08:23;11.00;1.00
9760;DHT22;4919;48.792;9.202;2023-04-06T15:11:09;10.90;1.00
9760;DHT22;4919;48.792;9.202;2023-04-06T15:13:54;10.90;1.00
9760;DHT22;4919;48.792;9.202;2023-04-06T15:16:39;10.80;1.00
9760;DHT22;4919;48.792;9.202;2023-04-06T15:19:24;10.90;1.00
9760;DHT22;4919;48.792;9.202;2023-04-06T15:22:08;11.00;1.00
9760;DHT22;4919;48.792;9.202;2023-04-06T15:24:53;10.90;1.00
9760;DHT22;4919;48.792;9.202;2023-04-06T15:27:38;10.70;1.00
9760;DHT22;4919;48.792;9.202;2023-04-06T15:30:23;10.70;1.00
9760;DHT22;4919;48.792;9.202;2023-04-06T15:33:08;10.80;1.00
9760;DHT22;4919;48.792;9.202;2023-04-06T15:35:53;10.90;1.00
9760;DHT22;4919;48.792;9.202;2023-04-06T15:38:38;10.80;1.00
9760;DHT22;4919;48.792;9.202;2023-04-06T15:41:23;10.80;1.00
9760;DHT22;4919;48.792;9.202;2023-04-06T15:44:08;10.90;1.00
9760;DHT22;4919;48.792;9.202;2023-04-06T15:46:53;10.80;1.00
9760;DHT22;4919;48.792;9.202;2023-04-06T15:49:38;10.70;1.00
9760;DHT22;4919;48.792;9.202;2023-04-06T15:52:23;10.70;1.00
9760;DHT22;4919;48.792;9.202;2023-04-06T15:55:08;10.70;1.00
9760;DHT22;4919;48.792;9.202;2023-04-06T15:57:53;10.70;1.00
9760;DHT22;4919;48.792;9.202;2023-04-06T16:00:38;10.60;1.00
9760;DHT22;4919;48.792;9.202;2023-04-06T16:03:23;10.60;1.00
9760;DHT22;4919;48.792;9.202;2023-04-06T16:06:08;10.60;1.00
9760;DHT22;4919;48.792;9.202;2023-04-06T16:08:53;10.50;1.00
9760;DHT22;4919;48.792;9.202;2023-04-06T16:11:38;10.60;1.00
9760;DHT22;4919;48.792;9.202;2023-04-06T16:14:23;10.50;1.00
9760;DHT22;4919;48.792;9.202;2023-04-06T16:17:08;10.40;1.00
9760;DHT22;4919;48.792;9.202;2023-04-06T16:19:52;10.30;1.00
9760;DHT22;4919;48.792;9.202;2023-04-06T16:22:37;10.20;1.00
9760;DHT22;4919;48.792;9.202;2023-04-06T16:25:22;10.20;1.00
9760;DHT22;4919;48.792;9.202;2023-04-06T16:28:07;10.10;1.00
9760;DHT22;4919;48.792;9.202;2023-04-06T16:30:52;10.10;1.00
9760;DHT22;4919;48.792;9.202;2023-04-06T16:33:37;10.10;1.00
9760;DHT22;4919;48.792;9.202;2023-04-06T16:36:29;10.10;1.00
9760;DHT22;4919;48.792;9.202;2023-04-06T16:39:14;10.00;1.00
9760;DHT22;4919;48.792;9.202;2023-04-06T16:41:59;10.00;1.00
9760;DHT22;4919;48.792;9.202;2023-04-06T16:44:44;9.90;1.00
9760;DHT22;4919;48.792;9.202;2023-04-06T16:47:29;9.70;1.00
9760;DHT22;4919;48.792;9.202;2023-04-06T16:50:14;9.70;1.00
9760;DHT22;4919;48.792;9.202;2023-04-06T16:52:58;9.60;1.00
9760;DHT22;4919;48.792;9.202;2023-04-06T16:55:43;9.60;1.00
9760;DHT22;4919;48.792;9.202;2023-04-06T16:58:28;9.50;1.00
9760;DHT22;4919;48.792;9.202;2023-04-06T17:01:20;9.40;1.00
9760;DHT22;4919;48.792;9.202;2023-04-06T17:04:05;9.40;1.00
9760;DHT22;4919;48.792;9.202;2023-04-06T17:06:50;9.30;1.00
9760;DHT22;4919;48.792;9.202;2023-04-06T17:09:34;9.20;1.00
9760;DHT22;4919;48.792;9.202;2023-04-06T17:12:19;9.10;1.00
9760;DHT22;4919;48.792;9.202;2023-04-06T17:15:04;9.00;1.00
9760;DHT22;4919;48.792;9.202;2023-04-06T17:17:50;8.90;1.00
9760;DHT22;4919;48.792;9.202;2023-04-06T17:20:35;8.80;1.00
9760;DHT22;4919;48.792;9.202;2023-04-06T17:23:19;8.70;1.00
9760;DHT22;4919;48.792;9.202;2023-04-06T17:26:05;8.70;1.00
9760;DHT22;4919;48.792;9.202;2023-04-06T17:28:50;8.50;1.00
9760;DHT22;4919;48.792;9.202;2023-04-06T17:31:35;8.50;1.00
9760;DHT22;4919;48.792;9.202;2023-04-06T17:34:20;8.30;1.00
9760;DHT22;4919;48.792;9.202;2023-04-06T17:37:05;8.20;1.00
9760;DHT22;4919;48.792;9.202;2023-04-06T17:39:49;8.10;1.00
9760;DHT22;4919;48.792;9.202;2023-04-06T17:42:34;8.00;1.00
9760;DHT22;4919;48.792;9.202;2023-04-06T17:45:19;7.80;1.00
9760;DHT22;4919;48.792;9.202;2023-04-06T17:48:04;7.80;1.00
9760;DHT22;4919;48.792;9.202;2023-04-06T17:50:49;7.60;1.00
9760;DHT22;4919;48.792;9.202;2023-04-06T17:53:34;7.50;1.00
9760;DHT22;4919;48.792;9.202;2023-04-06T17:56:18;7.40;1.00
9760;DHT22;4919;48.792;9.202;2023-04-06T17:59:03;7.30;1.00
9760;DHT22;4919;48.792;9.202;2023-04-06T18:01:48;7.20;1.00
9760;DHT22;4919;48.792;9.202;2023-04-06T18:04:34;7.00;1.00
9760;DHT22;4919;48.792;9.202;2023-04-06T18:07:19;6.90;1.00
9760;DHT22;4919;48.792;9.202;2023-04-06T18:10:05;6.80;1.00
9760;DHT22;4919;48.792;9.202;2023-04-06T18:12:50;6.70;1.00
9760;DHT22;4919;48.792;9.202;2023-04-06T18:15:35;6.50;1.00
9760;DHT22;4919;48.792;9.202;2023-04-06T18:18:20;6.40;1.00
9760;DHT22;4919;48.792;9.202;2023-04-06T18:21:05;6.30;1.00
9760;DHT22;4919;48.792;9.202;2023-04-06T18:23:50;6.30;1.00